Nearby METAR Reports

 

YMML - Melbourne Intl A, Australia
Distance from station: SSW 13km
Updated: Sun, 24-Jun-2018 3:00am AEST
Mostly Cloudy
Mostly Cloudy
 Wind from SW
Wind: SW 7 km/h
Temperature: 7°C
Wind Chill: 6°C
Dew Point: 5°C
Humidity: 87%
Barometer: 1029 hPa
Clouds: Mostly Cloudy
Visibility: 10 km
Cloud details: Few Clouds 914 m
Mostly Cloudy 1250 m
2018/06/23 17:00 YMML 231700Z 23004KT 9999 FEW030 BKN041 07/05 Q1029
YMEN - Melbourne/Essend, Australia
Distance from station: S 16km
Updated: Sun, 24-Jun-2018 3:00am AEST
Mostly Cloudy
Mostly Cloudy
 Wind from WSW
Wind: WSW 11 km/h
Temperature: 7°C
Wind Chill: 5°C
Dew Point: 7°C
Humidity: 100%
Barometer: 1029 hPa
Clouds: Mostly Cloudy
Visibility: 10 km
Cloud details: Partly Cloudy 884 m
Mostly Cloudy 1311 m
2018/06/23 17:00 YMEN 231700Z AUTO 25006KT 9999 // SCT029 BKN043 07/07 Q1029
 
YMAV - Avalon Airport, Australia
Distance from station: SW 63km
Updated: Sun, 24-Jun-2018 3:00am AEST
Overcast
Overcast
 Wind from W
Wind: W 9 km/h
Temperature: 8°C
Wind Chill: 6°C
Dew Point: 7°C
Humidity: 93%
Barometer: 1029 hPa
Clouds: Overcast
Visibility: 10 km
Cloud details: Partly Cloudy 792 m
Mostly Cloudy 945 m
Overcast 1219 m
2018/06/23 17:00 YMAV 231700Z AUTO 27005KT 9999 // SCT026 BKN031 OVC040 08/07 Q1029

Metar display script from Saratoga-Weather.org